Terminal Aerodrome Forecast
Issued by NWS Cleveland, OH

Home | Current Version | Previous Version | Text Only | Print | Product List | Glossary Off
Versions: 1 2 3 4 5 6 7 8 9 10 11 12 13 14 15 16 17 18

000
FTUS41 KCLE 202343
TAFTOL
TAF
KTOL 202343Z 2100/2124 09012KT P6SM SCT008 BKN100
     FM210600 14007KT 6SM -SHRA VCTS OVC060CB
      TEMPO 2108/2111 4SM -TSRA OVC035CB
     FM211200 17008KT 6SM -RA BR OVC025
     FM211600 22012G22KT P6SM BKN025
     FM211900 22013KT P6SM BKN050=

USA.gov is the U.S. government's official web portal to all federal, state and local government web resources and services.